sensor_id;sensor_type;location;lat;lon;timestamp;temperature;humidity
29295;DHT22;16305;48.566;8.846;2022-07-03T00:01:00;16.50;99.90
29295;DHT22;16305;48.566;8.846;2022-07-03T00:03:26;16.50;99.90
29295;DHT22;16305;48.566;8.846;2022-07-03T00:05:52;16.50;99.90
29295;DHT22;16305;48.566;8.846;2022-07-03T00:08:17;16.50;99.90
29295;DHT22;16305;48.566;8.846;2022-07-03T00:10:43;16.70;99.90
29295;DHT22;16305;48.566;8.846;2022-07-03T00:13:08;16.70;99.90
29295;DHT22;16305;48.566;8.846;2022-07-03T00:18:02;16.70;99.90
29295;DHT22;16305;48.566;8.846;2022-07-03T00:20:30;16.70;99.90
29295;DHT22;16305;48.566;8.846;2022-07-03T00:23:02;16.70;99.90
29295;DHT22;16305;48.566;8.846;2022-07-03T00:25:29;16.80;99.90
29295;DHT22;16305;48.566;8.846;2022-07-03T00:27:56;16.80;99.90
29295;DHT22;16305;48.566;8.846;2022-07-03T00:30:21;16.90;99.90
29295;DHT22;16305;48.566;8.846;2022-07-03T00:32:47;16.90;99.90
29295;DHT22;16305;48.566;8.846;2022-07-03T00:35:17;16.80;99.90
29295;DHT22;16305;48.566;8.846;2022-07-03T00:37:43;16.70;99.90
29295;DHT22;16305;48.566;8.846;2022-07-03T00:40:09;16.70;99.90
29295;DHT22;16305;48.566;8.846;2022-07-03T00:42:38;16.70;99.90
29295;DHT22;16305;48.566;8.846;2022-07-03T00:45:07;16.70;99.90
29295;DHT22;16305;48.566;8.846;2022-07-03T00:47:35;16.70;99.90
29295;DHT22;16305;48.566;8.846;2022-07-03T00:50:06;16.80;99.90
29295;DHT22;16305;48.566;8.846;2022-07-03T00:52:33;16.90;99.90
29295;DHT22;16305;48.566;8.846;2022-07-03T00:54:59;16.90;99.90
29295;DHT22;16305;48.566;8.846;2022-07-03T00:57:27;16.90;99.90
29295;DHT22;16305;48.566;8.846;2022-07-03T00:59:53;16.70;99.90
29295;DHT22;16305;48.566;8.846;2022-07-03T01:02:40;16.20;99.90
29295;DHT22;16305;48.566;8.846;2022-07-03T01:16:17;16.00;99.90
29295;DHT22;16305;48.566;8.846;2022-07-03T01:18:59;16.10;99.90
29295;DHT22;16305;48.566;8.846;2022-07-03T01:21:44;16.10;99.90
29295;DHT22;16305;48.566;8.846;2022-07-03T01:27:34;15.90;99.90
29295;DHT22;16305;48.566;8.846;2022-07-03T01:30:06;15.90;99.90
29295;DHT22;16305;48.566;8.846;2022-07-03T01:32:41;16.10;99.90
29295;DHT22;16305;48.566;8.846;2022-07-03T01:35:08;16.00;99.90
29295;DHT22;16305;48.566;8.846;2022-07-03T01:37:36;16.10;99.90
29295;DHT22;16305;48.566;8.846;2022-07-03T01:40:04;16.10;99.90
29295;DHT22;16305;48.566;8.846;2022-07-03T01:42:34;15.70;99.90
29295;DHT22;16305;48.566;8.846;2022-07-03T01:45:00;15.50;99.90
29295;DHT22;16305;48.566;8.846;2022-07-03T01:47:27;15.30;99.90
29295;DHT22;16305;48.566;8.846;2022-07-03T01:49:54;15.20;99.90
29295;DHT22;16305;48.566;8.846;2022-07-03T01:52:20;15.40;99.90
29295;DHT22;16305;48.566;8.846;2022-07-03T01:54:47;15.40;99.90
29295;DHT22;16305;48.566;8.846;2022-07-03T01:57:13;15.40;99.90
29295;DHT22;16305;48.566;8.846;2022-07-03T01:59:39;15.40;99.90
29295;DHT22;16305;48.566;8.846;2022-07-03T02:02:16;15.20;99.90
29295;DHT22;16305;48.566;8.846;2022-07-03T02:05:02;15.20;99.90
29295;DHT22;16305;48.566;8.846;2022-07-03T02:07:41;15.10;99.90
29295;DHT22;16305;48.566;8.846;2022-07-03T02:10:10;15.00;99.90
29295;DHT22;16305;48.566;8.846;2022-07-03T02:15:09;15.30;99.90
29295;DHT22;16305;48.566;8.846;2022-07-03T02:18:18;15.40;99.90
29295;DHT22;16305;48.566;8.846;2022-07-03T02:20:52;15.10;99.90
29295;DHT22;16305;48.566;8.846;2022-07-03T02:23:23;14.80;99.90
29295;DHT22;16305;48.566;8.846;2022-07-03T02:25:55;14.70;99.90
29295;DHT22;16305;48.566;8.846;2022-07-03T02:29:15;14.80;99.90
29295;DHT22;16305;48.566;8.846;2022-07-03T02:31:16;14.90;99.90
29295;DHT22;16305;48.566;8.846;2022-07-03T02:33:44;15.20;99.90
29295;DHT22;16305;48.566;8.846;2022-07-03T02:36:14;15.40;99.90
29295;DHT22;16305;48.566;8.846;2022-07-03T02:38:43;15.40;99.90
29295;DHT22;16305;48.566;8.846;2022-07-03T02:41:24;15.00;99.90
29295;DHT22;16305;48.566;8.846;2022-07-03T02:44:07;14.60;99.90
29295;DHT22;16305;48.566;8.846;2022-07-03T02:46:53;14.50;99.90
29295;DHT22;16305;48.566;8.846;2022-07-03T02:49:22;14.30;99.90
29295;DHT22;16305;48.566;8.846;2022-07-03T02:54:48;14.10;99.90
29295;DHT22;16305;48.566;8.846;2022-07-03T02:57:19;14.20;99.90
29295;DHT22;16305;48.566;8.846;2022-07-03T03:00:01;14.30;99.90
29295;DHT22;16305;48.566;8.846;2022-07-03T03:08:11;14.40;99.90
29295;DHT22;16305;48.566;8.846;2022-07-03T03:10:39;14.40;99.90
29295;DHT22;16305;48.566;8.846;2022-07-03T03:13:12;14.40;99.90
29295;DHT22;16305;48.566;8.846;2022-07-03T03:15:43;14.50;99.90
29295;DHT22;16305;48.566;8.846;2022-07-03T03:18:12;14.30;99.90
29295;DHT22;16305;48.566;8.846;2022-07-03T03:20:38;14.20;99.90
29295;DHT22;16305;48.566;8.846;2022-07-03T03:23:13;14.30;99.90
29295;DHT22;16305;48.566;8.846;2022-07-03T03:25:41;14.40;99.90
29295;DHT22;16305;48.566;8.846;2022-07-03T03:28:06;14.40;99.90
29295;DHT22;16305;48.566;8.846;2022-07-03T03:30:33;14.20;99.90
29295;DHT22;16305;48.566;8.846;2022-07-03T03:33:00;14.10;99.90
29295;DHT22;16305;48.566;8.846;2022-07-03T03:35:25;14.20;99.90
29295;DHT22;16305;48.566;8.846;2022-07-03T03:37:51;14.40;99.90
29295;DHT22;16305;48.566;8.846;2022-07-03T03:40:17;14.60;99.90
29295;DHT22;16305;48.566;8.846;2022-07-03T03:42:42;14.50;99.90
29295;DHT22;16305;48.566;8.846;2022-07-03T03:45:08;14.60;99.90
29295;DHT22;16305;48.566;8.846;2022-07-03T03:47:34;14.60;99.90
29295;DHT22;16305;48.566;8.846;2022-07-03T03:50:01;14.70;99.90
29295;DHT22;16305;48.566;8.846;2022-07-03T03:52:28;14.60;99.90
29295;DHT22;16305;48.566;8.846;2022-07-03T03:54:53;14.70;99.90
29295;DHT22;16305;48.566;8.846;2022-07-03T03:57:21;14.80;99.90
29295;DHT22;16305;48.566;8.846;2022-07-03T03:59:48;14.90;99.90
29295;DHT22;16305;48.566;8.846;2022-07-03T04:02:14;14.80;99.90
29295;DHT22;16305;48.566;8.846;2022-07-03T04:04:40;14.70;99.90
29295;DHT22;16305;48.566;8.846;2022-07-03T04:07:06;14.70;99.90
29295;DHT22;16305;48.566;8.846;2022-07-03T04:09:31;14.70;99.90
29295;DHT22;16305;48.566;8.846;2022-07-03T04:11:57;14.60;99.90
29295;DHT22;16305;48.566;8.846;2022-07-03T04:14:23;14.50;99.90
29295;DHT22;16305;48.566;8.846;2022-07-03T04:16:48;14.40;99.90
29295;DHT22;16305;48.566;8.846;2022-07-03T04:19:14;14.50;99.90
29295;DHT22;16305;48.566;8.846;2022-07-03T04:21:39;14.60;99.90
29295;DHT22;16305;48.566;8.846;2022-07-03T04:24:06;14.60;99.90
29295;DHT22;16305;48.566;8.846;2022-07-03T04:26:32;14.80;99.90
29295;DHT22;16305;48.566;8.846;2022-07-03T04:28:57;15.10;99.90
29295;DHT22;16305;48.566;8.846;2022-07-03T04:31:23;15.30;99.90
29295;DHT22;16305;48.566;8.846;2022-07-03T04:33:48;15.50;99.90
29295;DHT22;16305;48.566;8.846;2022-07-03T04:36:15;15.60;99.90
29295;DHT22;16305;48.566;8.846;2022-07-03T04:38:40;15.80;99.90
29295;DHT22;16305;48.566;8.846;2022-07-03T04:41:06;15.90;99.90
29295;DHT22;16305;48.566;8.846;2022-07-03T04:43:31;16.00;99.90
29295;DHT22;16305;48.566;8.846;2022-07-03T04:45:57;16.00;99.90
29295;DHT22;16305;48.566;8.846;2022-07-03T04:48:22;16.00;99.90
29295;DHT22;16305;48.566;8.846;2022-07-03T04:50:48;16.00;99.90
29295;DHT22;16305;48.566;8.846;2022-07-03T04:53:13;16.10;99.90
29295;DHT22;16305;48.566;8.846;2022-07-03T04:55:39;16.10;99.90
29295;DHT22;16305;48.566;8.846;2022-07-03T04:58:04;16.10;99.90
29295;DHT22;16305;48.566;8.846;2022-07-03T05:00:30;16.10;99.90
29295;DHT22;16305;48.566;8.846;2022-07-03T05:02:56;16.10;99.90
29295;DHT22;16305;48.566;8.846;2022-07-03T05:05:21;16.10;99.90
29295;DHT22;16305;48.566;8.846;2022-07-03T05:07:47;16.20;99.90
29295;DHT22;16305;48.566;8.846;2022-07-03T05:10:12;16.20;99.90
29295;DHT22;16305;48.566;8.846;2022-07-03T05:12:39;16.20;99.90
29295;DHT22;16305;48.566;8.846;2022-07-03T05:15:05;16.30;99.90
29295;DHT22;16305;48.566;8.846;2022-07-03T05:17:31;16.40;99.90
29295;DHT22;16305;48.566;8.846;2022-07-03T05:19:56;16.50;99.90
29295;DHT22;16305;48.566;8.846;2022-07-03T05:22:40;16.60;99.90
29295;DHT22;16305;48.566;8.846;2022-07-03T05:25:06;16.70;99.90
29295;DHT22;16305;48.566;8.846;2022-07-03T05:27:36;16.80;99.90
29295;DHT22;16305;48.566;8.846;2022-07-03T05:30:01;16.90;99.90
29295;DHT22;16305;48.566;8.846;2022-07-03T05:32:27;16.90;99.90
29295;DHT22;16305;48.566;8.846;2022-07-03T05:34:52;17.00;99.90
29295;DHT22;16305;48.566;8.846;2022-07-03T05:37:18;17.10;99.90
29295;DHT22;16305;48.566;8.846;2022-07-03T05:39:43;17.20;99.90
29295;DHT22;16305;48.566;8.846;2022-07-03T05:42:09;17.30;99.90
29295;DHT22;16305;48.566;8.846;2022-07-03T05:44:34;17.20;99.90
29295;DHT22;16305;48.566;8.846;2022-07-03T05:47:00;17.60;99.90
29295;DHT22;16305;48.566;8.846;2022-07-03T05:49:25;17.60;99.90
29295;DHT22;16305;48.566;8.846;2022-07-03T05:51:51;17.60;99.90
29295;DHT22;16305;48.566;8.846;2022-07-03T05:54:16;17.80;99.90
29295;DHT22;16305;48.566;8.846;2022-07-03T05:56:42;18.00;99.90
29295;DHT22;16305;48.566;8.846;2022-07-03T05:59:07;18.00;99.90
29295;DHT22;16305;48.566;8.846;2022-07-03T06:01:33;18.00;99.90
29295;DHT22;16305;48.566;8.846;2022-07-03T06:03:58;18.10;99.90
29295;DHT22;16305;48.566;8.846;2022-07-03T06:06:24;18.20;99.90
29295;DHT22;16305;48.566;8.846;2022-07-03T06:08:49;18.20;99.90
29295;DHT22;16305;48.566;8.846;2022-07-03T06:11:15;18.20;99.90
29295;DHT22;16305;48.566;8.846;2022-07-03T06:13:41;18.20;99.90
29295;DHT22;16305;48.566;8.846;2022-07-03T06:16:06;18.30;99.90
29295;DHT22;16305;48.566;8.846;2022-07-03T06:18:32;18.40;99.90
29295;DHT22;16305;48.566;8.846;2022-07-03T06:20:57;18.60;99.90
29295;DHT22;16305;48.566;8.846;2022-07-03T06:23:23;18.70;99.90
29295;DHT22;16305;48.566;8.846;2022-07-03T06:25:48;18.80;99.90
29295;DHT22;16305;48.566;8.846;2022-07-03T06:28:14;18.90;99.90
29295;DHT22;16305;48.566;8.846;2022-07-03T06:30:39;18.90;99.90
29295;DHT22;16305;48.566;8.846;2022-07-03T06:33:05;18.80;99.90
29295;DHT22;16305;48.566;8.846;2022-07-03T06:35:31;18.60;99.90
29295;DHT22;16305;48.566;8.846;2022-07-03T06:38:01;18.70;99.90
29295;DHT22;16305;48.566;8.846;2022-07-03T06:40:26;18.80;99.90
29295;DHT22;16305;48.566;8.846;2022-07-03T06:42:52;18.70;99.90
29295;DHT22;16305;48.566;8.846;2022-07-03T06:45:17;18.80;99.90
29295;DHT22;16305;48.566;8.846;2022-07-03T06:47:43;18.90;99.90
29295;DHT22;16305;48.566;8.846;2022-07-03T06:50:08;19.10;99.90
29295;DHT22;16305;48.566;8.846;2022-07-03T06:52:34;19.10;99.90
29295;DHT22;16305;48.566;8.846;2022-07-03T06:55:00;19.30;99.90
29295;DHT22;16305;48.566;8.846;2022-07-03T06:57:25;19.50;99.90
29295;DHT22;16305;48.566;8.846;2022-07-03T06:59:51;19.60;99.90
29295;DHT22;16305;48.566;8.846;2022-07-03T07:02:16;19.70;99.90
29295;DHT22;16305;48.566;8.846;2022-07-03T07:04:42;19.90;99.90
29295;DHT22;16305;48.566;8.846;2022-07-03T07:07:07;20.00;99.90
29295;DHT22;16305;48.566;8.846;2022-07-03T07:09:33;20.10;99.90
29295;DHT22;16305;48.566;8.846;2022-07-03T07:11:58;20.20;99.90
29295;DHT22;16305;48.566;8.846;2022-07-03T07:14:24;20.30;99.90
29295;DHT22;16305;48.566;8.846;2022-07-03T07:16:49;20.30;99.90
29295;DHT22;16305;48.566;8.846;2022-07-03T07:19:15;20.40;99.90
29295;DHT22;16305;48.566;8.846;2022-07-03T07:21:40;20.60;99.90
29295;DHT22;16305;48.566;8.846;2022-07-03T07:24:06;20.60;99.90
29295;DHT22;16305;48.566;8.846;2022-07-03T07:26:32;20.80;99.90
29295;DHT22;16305;48.566;8.846;2022-07-03T07:28:57;20.90;99.90
29295;DHT22;16305;48.566;8.846;2022-07-03T07:31:23;21.00;99.90
29295;DHT22;16305;48.566;8.846;2022-07-03T07:33:48;21.10;99.90
29295;DHT22;16305;48.566;8.846;2022-07-03T07:36:14;21.10;99.90
29295;DHT22;16305;48.566;8.846;2022-07-03T07:38:40;21.10;99.90
29295;DHT22;16305;48.566;8.846;2022-07-03T07:41:05;21.20;99.90
29295;DHT22;16305;48.566;8.846;2022-07-03T07:43:31;21.30;99.90
29295;DHT22;16305;48.566;8.846;2022-07-03T07:45:56;21.40;99.90
29295;DHT22;16305;48.566;8.846;2022-07-03T07:48:22;21.50;99.90
29295;DHT22;16305;48.566;8.846;2022-07-03T07:50:47;21.60;99.90
29295;DHT22;16305;48.566;8.846;2022-07-03T07:53:15;21.60;99.90
29295;DHT22;16305;48.566;8.846;2022-07-03T07:55:40;21.80;99.90
29295;DHT22;16305;48.566;8.846;2022-07-03T07:58:06;21.90;99.90
29295;DHT22;16305;48.566;8.846;2022-07-03T08:00:32;22.00;99.90
29295;DHT22;16305;48.566;8.846;2022-07-03T08:02:58;22.20;99.90
29295;DHT22;16305;48.566;8.846;2022-07-03T08:05:42;22.30;99.90
29295;DHT22;16305;48.566;8.846;2022-07-03T08:08:16;22.40;99.90
29295;DHT22;16305;48.566;8.846;2022-07-03T08:10:46;22.50;99.90
29295;DHT22;16305;48.566;8.846;2022-07-03T08:13:14;22.60;99.90
29295;DHT22;16305;48.566;8.846;2022-07-03T08:15:40;22.60;99.90
29295;DHT22;16305;48.566;8.846;2022-07-03T08:18:07;22.80;99.90
29295;DHT22;16305;48.566;8.846;2022-07-03T08:20:33;23.10;99.90
29295;DHT22;16305;48.566;8.846;2022-07-03T08:22:59;22.90;99.90
29295;DHT22;16305;48.566;8.846;2022-07-03T08:25:25;22.90;99.90
29295;DHT22;16305;48.566;8.846;2022-07-03T08:27:52;22.90;99.90
29295;DHT22;16305;48.566;8.846;2022-07-03T08:30:17;22.80;99.90
29295;DHT22;16305;48.566;8.846;2022-07-03T08:32:45;22.90;99.90
29295;DHT22;16305;48.566;8.846;2022-07-03T08:35:10;23.00;99.90
29295;DHT22;16305;48.566;8.846;2022-07-03T08:37:36;23.20;99.90
29295;DHT22;16305;48.566;8.846;2022-07-03T08:40:05;23.40;99.90
29295;DHT22;16305;48.566;8.846;2022-07-03T08:42:32;23.60;99.90
29295;DHT22;16305;48.566;8.846;2022-07-03T08:45:00;23.50;99.90
29295;DHT22;16305;48.566;8.846;2022-07-03T08:47:27;23.60;99.90
29295;DHT22;16305;48.566;8.846;2022-07-03T08:49:54;23.70;99.90
29295;DHT22;16305;48.566;8.846;2022-07-03T08:52:22;23.70;99.90
29295;DHT22;16305;48.566;8.846;2022-07-03T08:54:48;23.70;99.90
29295;DHT22;16305;48.566;8.846;2022-07-03T08:57:13;23.70;99.90
29295;DHT22;16305;48.566;8.846;2022-07-03T08:59:40;23.80;99.90
29295;DHT22;16305;48.566;8.846;2022-07-03T09:02:06;23.70;99.90
29295;DHT22;16305;48.566;8.846;2022-07-03T09:04:35;23.90;99.90
29295;DHT22;16305;48.566;8.846;2022-07-03T09:07:01;24.20;99.90
29295;DHT22;16305;48.566;8.846;2022-07-03T09:09:27;24.20;99.90
29295;DHT22;16305;48.566;8.846;2022-07-03T09:11:53;24.10;99.90
29295;DHT22;16305;48.566;8.846;2022-07-03T09:14:19;24.10;99.90
29295;DHT22;16305;48.566;8.846;2022-07-03T09:16:44;24.20;99.90
29295;DHT22;16305;48.566;8.846;2022-07-03T09:19:10;24.20;99.90
29295;DHT22;16305;48.566;8.846;2022-07-03T09:21:40;24.50;99.90
29295;DHT22;16305;48.566;8.846;2022-07-03T09:24:10;24.40;99.90
29295;DHT22;16305;48.566;8.846;2022-07-03T09:26:36;24.60;99.90
29295;DHT22;16305;48.566;8.846;2022-07-03T09:29:14;24.30;99.90
29295;DHT22;16305;48.566;8.846;2022-07-03T09:31:39;24.50;99.90
29295;DHT22;16305;48.566;8.846;2022-07-03T09:34:06;24.60;99.90
29295;DHT22;16305;48.566;8.846;2022-07-03T09:36:45;24.40;99.90
29295;DHT22;16305;48.566;8.846;2022-07-03T09:41:58;24.50;99.90
29295;DHT22;16305;48.566;8.846;2022-07-03T09:44:37;24.60;99.90
29295;DHT22;16305;48.566;8.846;2022-07-03T09:47:09;24.80;99.90
29295;DHT22;16305;48.566;8.846;2022-07-03T09:49:53;25.10;99.90
29295;DHT22;16305;48.566;8.846;2022-07-03T09:52:28;25.20;99.90
29295;DHT22;16305;48.566;8.846;2022-07-03T09:54:59;25.10;99.90
29295;DHT22;16305;48.566;8.846;2022-07-03T09:57:30;25.20;99.90
29295;DHT22;16305;48.566;8.846;2022-07-03T10:03:05;25.10;99.90
29295;DHT22;16305;48.566;8.846;2022-07-03T10:05:38;24.90;99.90
29295;DHT22;16305;48.566;8.846;2022-07-03T10:08:10;25.00;99.90
29295;DHT22;16305;48.566;8.846;2022-07-03T10:10:42;25.20;99.90
29295;DHT22;16305;48.566;8.846;2022-07-03T10:13:08;25.30;99.90
29295;DHT22;16305;48.566;8.846;2022-07-03T10:15:35;25.50;99.90
29295;DHT22;16305;48.566;8.846;2022-07-03T10:18:06;25.80;99.90
29295;DHT22;16305;48.566;8.846;2022-07-03T10:20:48;25.70;99.90
29295;DHT22;16305;48.566;8.846;2022-07-03T10:23:20;25.50;99.90
29295;DHT22;16305;48.566;8.846;2022-07-03T10:25:46;25.50;99.90
29295;DHT22;16305;48.566;8.846;2022-07-03T10:28:14;25.60;99.90
29295;DHT22;16305;48.566;8.846;2022-07-03T10:30:42;25.80;99.90
29295;DHT22;16305;48.566;8.846;2022-07-03T10:33:08;25.80;99.90
29295;DHT22;16305;48.566;8.846;2022-07-03T10:35:36;26.00;99.90
29295;DHT22;16305;48.566;8.846;2022-07-03T10:43:28;25.90;99.90
29295;DHT22;16305;48.566;8.846;2022-07-03T10:46:18;25.80;99.90
29295;DHT22;16305;48.566;8.846;2022-07-03T10:48:57;25.90;99.90
29295;DHT22;16305;48.566;8.846;2022-07-03T10:51:23;25.80;99.90
29295;DHT22;16305;48.566;8.846;2022-07-03T10:53:49;26.00;99.90
29295;DHT22;16305;48.566;8.846;2022-07-03T10:56:15;26.40;99.90
29295;DHT22;16305;48.566;8.846;2022-07-03T10:58:57;26.50;99.90
29295;DHT22;16305;48.566;8.846;2022-07-03T11:03:54;26.40;99.90
29295;DHT22;16305;48.566;8.846;2022-07-03T11:06:20;26.20;99.90
29295;DHT22;16305;48.566;8.846;2022-07-03T11:09:04;26.20;99.90
29295;DHT22;16305;48.566;8.846;2022-07-03T11:11:46;26.30;99.90
29295;DHT22;16305;48.566;8.846;2022-07-03T11:14:23;26.40;99.90
29295;DHT22;16305;48.566;8.846;2022-07-03T11:16:49;26.50;99.90
29295;DHT22;16305;48.566;8.846;2022-07-03T11:19:15;26.80;99.90
29295;DHT22;16305;48.566;8.846;2022-07-03T11:21:53;27.00;99.90
29295;DHT22;16305;48.566;8.846;2022-07-03T11:24:45;27.30;99.90
29295;DHT22;16305;48.566;8.846;2022-07-03T11:27:19;27.40;99.90
29295;DHT22;16305;48.566;8.846;2022-07-03T11:29:50;27.20;99.90
29295;DHT22;16305;48.566;8.846;2022-07-03T11:32:47;27.10;99.90
29295;DHT22;16305;48.566;8.846;2022-07-03T11:35:50;27.10;99.90
29295;DHT22;16305;48.566;8.846;2022-07-03T11:38:23;27.10;99.90
29295;DHT22;16305;48.566;8.846;2022-07-03T11:40:51;27.00;99.90
29295;DHT22;16305;48.566;8.846;2022-07-03T11:43:17;27.30;99.90
29295;DHT22;16305;48.566;8.846;2022-07-03T11:45:43;27.60;99.90
29295;DHT22;16305;48.566;8.846;2022-07-03T11:48:19;27.80;99.90
29295;DHT22;16305;48.566;8.846;2022-07-03T11:50:46;27.70;99.90
29295;DHT22;16305;48.566;8.846;2022-07-03T11:53:19;27.90;99.90
29295;DHT22;16305;48.566;8.846;2022-07-03T11:55:49;28.00;99.90
29295;DHT22;16305;48.566;8.846;2022-07-03T11:58:15;27.70;99.90
29295;DHT22;16305;48.566;8.846;2022-07-03T12:00:42;27.80;99.90
29295;DHT22;16305;48.566;8.846;2022-07-03T12:03:08;27.80;99.90
29295;DHT22;16305;48.566;8.846;2022-07-03T12:05:33;28.30;99.90
29295;DHT22;16305;48.566;8.846;2022-07-03T12:08:06;28.40;99.90
29295;DHT22;16305;48.566;8.846;2022-07-03T12:10:41;28.50;99.90
29295;DHT22;16305;48.566;8.846;2022-07-03T12:13:20;28.20;99.90
29295;DHT22;16305;48.566;8.846;2022-07-03T12:15:46;28.10;99.90
29295;DHT22;16305;48.566;8.846;2022-07-03T12:18:13;28.50;99.90
29295;DHT22;16305;48.566;8.846;2022-07-03T12:20:38;28.50;99.90
29295;DHT22;16305;48.566;8.846;2022-07-03T12:23:04;28.50;99.90
29295;DHT22;16305;48.566;8.846;2022-07-03T12:25:30;28.50;99.90
29295;DHT22;16305;48.566;8.846;2022-07-03T12:27:56;28.50;99.90
29295;DHT22;16305;48.566;8.846;2022-07-03T12:30:23;28.40;99.90
29295;DHT22;16305;48.566;8.846;2022-07-03T12:32:51;28.30;99.90
29295;DHT22;16305;48.566;8.846;2022-07-03T12:35:21;28.30;99.90
29295;DHT22;16305;48.566;8.846;2022-07-03T12:37:47;28.20;99.90
29295;DHT22;16305;48.566;8.846;2022-07-03T12:40:13;28.40;99.90
29295;DHT22;16305;48.566;8.846;2022-07-03T12:42:53;28.70;99.90
29295;DHT22;16305;48.566;8.846;2022-07-03T12:45:20;28.70;99.90
29295;DHT22;16305;48.566;8.846;2022-07-03T12:47:57;28.60;99.90
29295;DHT22;16305;48.566;8.846;2022-07-03T12:50:22;29.00;99.90
29295;DHT22;16305;48.566;8.846;2022-07-03T12:52:56;29.10;99.90
29295;DHT22;16305;48.566;8.846;2022-07-03T12:55:28;29.40;99.90
29295;DHT22;16305;48.566;8.846;2022-07-03T12:58:15;29.40;99.90
29295;DHT22;16305;48.566;8.846;2022-07-03T13:00:59;29.70;99.90
29295;DHT22;16305;48.566;8.846;2022-07-03T13:03:35;29.40;99.90
29295;DHT22;16305;48.566;8.846;2022-07-03T13:06:01;29.30;99.90
29295;DHT22;16305;48.566;8.846;2022-07-03T13:08:26;29.60;99.90
29295;DHT22;16305;48.566;8.846;2022-07-03T13:10:59;29.50;99.90
29295;DHT22;16305;48.566;8.846;2022-07-03T13:13:25;29.60;99.90
29295;DHT22;16305;48.566;8.846;2022-07-03T13:15:51;29.80;99.90
29295;DHT22;16305;48.566;8.846;2022-07-03T13:18:18;29.90;99.90
29295;DHT22;16305;48.566;8.846;2022-07-03T13:20:43;29.70;99.90
29295;DHT22;16305;48.566;8.846;2022-07-03T13:23:09;29.40;99.90
29295;DHT22;16305;48.566;8.846;2022-07-03T13:25:37;29.80;99.90
29295;DHT22;16305;48.566;8.846;2022-07-03T13:28:07;29.70;99.90
29295;DHT22;16305;48.566;8.846;2022-07-03T13:30:34;29.60;99.90
29295;DHT22;16305;48.566;8.846;2022-07-03T13:33:01;29.80;99.90
29295;DHT22;16305;48.566;8.846;2022-07-03T13:35:27;30.10;99.90
29295;DHT22;16305;48.566;8.846;2022-07-03T13:37:52;30.20;99.90
29295;DHT22;16305;48.566;8.846;2022-07-03T13:40:18;29.90;99.90
29295;DHT22;16305;48.566;8.846;2022-07-03T13:42:44;29.90;99.90
29295;DHT22;16305;48.566;8.846;2022-07-03T13:45:10;30.00;99.90
29295;DHT22;16305;48.566;8.846;2022-07-03T13:47:36;30.30;99.90
29295;DHT22;16305;48.566;8.846;2022-07-03T13:50:02;30.20;99.90
29295;DHT22;16305;48.566;8.846;2022-07-03T13:52:27;30.30;99.90
29295;DHT22;16305;48.566;8.846;2022-07-03T13:54:53;30.40;99.90
29295;DHT22;16305;48.566;8.846;2022-07-03T13:57:18;30.10;99.90
29295;DHT22;16305;48.566;8.846;2022-07-03T13:59:44;30.10;99.90
29295;DHT22;16305;48.566;8.846;2022-07-03T14:02:09;30.20;99.90
29295;DHT22;16305;48.566;8.846;2022-07-03T14:04:35;30.60;99.90
29295;DHT22;16305;48.566;8.846;2022-07-03T14:07:01;30.60;99.90
29295;DHT22;16305;48.566;8.846;2022-07-03T14:09:26;30.70;99.90
29295;DHT22;16305;48.566;8.846;2022-07-03T14:11:52;30.70;99.90
29295;DHT22;16305;48.566;8.846;2022-07-03T14:14:18;30.80;99.90
29295;DHT22;16305;48.566;8.846;2022-07-03T14:16:43;30.70;99.90
29295;DHT22;16305;48.566;8.846;2022-07-03T14:19:09;30.90;99.90
29295;DHT22;16305;48.566;8.846;2022-07-03T14:21:34;30.90;99.90
29295;DHT22;16305;48.566;8.846;2022-07-03T14:24:00;31.20;99.90
29295;DHT22;16305;48.566;8.846;2022-07-03T14:26:26;31.30;99.90
29295;DHT22;16305;48.566;8.846;2022-07-03T14:29:10;31.30;99.60
29295;DHT22;16305;48.566;8.846;2022-07-03T14:31:55;31.00;99.20
29295;DHT22;16305;48.566;8.846;2022-07-03T14:34:39;31.60;99.90
29295;DHT22;16305;48.566;8.846;2022-07-03T14:37:05;31.30;99.60
29295;DHT22;16305;48.566;8.846;2022-07-03T14:39:30;31.30;99.60
29295;DHT22;16305;48.566;8.846;2022-07-03T14:41:56;31.60;99.40
29295;DHT22;16305;48.566;8.846;2022-07-03T14:44:21;31.30;98.50
29295;DHT22;16305;48.566;8.846;2022-07-03T14:46:51;31.50;99.70
29295;DHT22;16305;48.566;8.846;2022-07-03T14:49:17;31.10;98.70
29295;DHT22;16305;48.566;8.846;2022-07-03T14:51:43;30.90;97.90
29295;DHT22;16305;48.566;8.846;2022-07-03T14:54:10;31.00;98.00
29295;DHT22;16305;48.566;8.846;2022-07-03T14:56:39;31.40;99.80
29295;DHT22;16305;48.566;8.846;2022-07-03T14:59:08;32.20;99.90
29295;DHT22;16305;48.566;8.846;2022-07-03T15:01:40;32.40;99.90
29295;DHT22;16305;48.566;8.846;2022-07-03T15:04:20;31.90;99.90
29295;DHT22;16305;48.566;8.846;2022-07-03T15:06:46;31.80;99.90
29295;DHT22;16305;48.566;8.846;2022-07-03T15:09:19;31.60;99.50
29295;DHT22;16305;48.566;8.846;2022-07-03T15:11:56;31.70;98.30
29295;DHT22;16305;48.566;8.846;2022-07-03T15:14:43;31.60;97.80
29295;DHT22;16305;48.566;8.846;2022-07-03T15:17:09;31.50;97.50
29295;DHT22;16305;48.566;8.846;2022-07-03T15:19:35;31.50;97.10
29295;DHT22;16305;48.566;8.846;2022-07-03T15:22:03;31.70;97.60
29295;DHT22;16305;48.566;8.846;2022-07-03T15:24:30;31.30;97.90
29295;DHT22;16305;48.566;8.846;2022-07-03T15:26:56;31.30;97.20
29295;DHT22;16305;48.566;8.846;2022-07-03T15:29:23;31.70;96.70
29295;DHT22;16305;48.566;8.846;2022-07-03T15:31:49;32.20;96.40
29295;DHT22;16305;48.566;8.846;2022-07-03T15:34:14;32.00;95.50
29295;DHT22;16305;48.566;8.846;2022-07-03T15:36:50;32.20;95.50
29295;DHT22;16305;48.566;8.846;2022-07-03T15:39:27;32.20;95.80
29295;DHT22;16305;48.566;8.846;2022-07-03T15:42:12;31.90;95.10
29295;DHT22;16305;48.566;8.846;2022-07-03T15:44:58;31.70;96.10
29295;DHT22;16305;48.566;8.846;2022-07-03T15:47:42;32.10;95.20
29295;DHT22;16305;48.566;8.846;2022-07-03T15:50:26;31.90;95.20
29295;DHT22;16305;48.566;8.846;2022-07-03T15:52:53;32.10;96.40
29295;DHT22;16305;48.566;8.846;2022-07-03T15:55:21;32.40;95.90
29295;DHT22;16305;48.566;8.846;2022-07-03T15:58:03;32.60;96.50
29295;DHT22;16305;48.566;8.846;2022-07-03T16:00:34;32.20;96.20
29295;DHT22;16305;48.566;8.846;2022-07-03T16:03:25;32.50;97.60
29295;DHT22;16305;48.566;8.846;2022-07-03T16:05:55;32.90;95.30
29295;DHT22;16305;48.566;8.846;2022-07-03T16:08:23;33.30;94.80
29295;DHT22;16305;48.566;8.846;2022-07-03T16:10:51;33.50;93.90
29295;DHT22;16305;48.566;8.846;2022-07-03T16:13:20;33.70;95.50
29295;DHT22;16305;48.566;8.846;2022-07-03T16:15:50;32.80;94.20
29295;DHT22;16305;48.566;8.846;2022-07-03T16:18:16;32.20;94.60
29295;DHT22;16305;48.566;8.846;2022-07-03T16:20:42;31.80;96.80
29295;DHT22;16305;48.566;8.846;2022-07-03T16:23:10;31.50;97.90